createdAt,value
2023-03-25T00:01:33.167Z,7.82
2023-03-25T00:04:01.849Z,7.82
2023-03-25T00:06:36.477Z,7.83
2023-03-25T00:09:07.153Z,7.82
2023-03-25T00:11:37.847Z,7.81
2023-03-25T00:14:06.596Z,7.77
2023-03-25T00:16:37.943Z,7.78
2023-03-25T00:19:06.904Z,7.78
2023-03-25T00:21:35.660Z,7.77
2023-03-25T00:24:03.977Z,7.77
2023-03-25T00:26:32.682Z,7.78
2023-03-25T00:29:01.342Z,7.80
2023-03-25T00:31:29.785Z,7.80
2023-03-25T00:33:58.430Z,7.76
2023-03-25T00:36:28.610Z,7.74
2023-03-25T00:38:57.013Z,7.74
2023-03-25T00:41:28.671Z,7.73
2023-03-25T00:44:00.192Z,7.76
2023-03-25T00:46:31.044Z,7.80
2023-03-25T00:49:04.472Z,7.83
2023-03-25T00:51:36.222Z,7.84
2023-03-25T00:54:23.684Z,7.85
2023-03-25T00:56:52.726Z,7.88
2023-03-25T00:59:21.313Z,7.88
2023-03-25T01:01:49.598Z,7.89
2023-03-25T01:04:18.415Z,7.93
2023-03-25T01:06:51.897Z,7.96
2023-03-25T01:09:21.181Z,7.98
2023-03-25T01:11:50.937Z,7.99
2023-03-25T01:14:20.027Z,7.96
2023-03-25T01:16:50.421Z,7.95
2023-03-25T01:19:18.727Z,7.96
2023-03-25T01:21:47.886Z,7.98
2023-03-25T01:24:16.450Z,8.01
2023-03-25T01:26:46.042Z,8.02
2023-03-25T01:29:15.022Z,8.04
2023-03-25T01:31:44.445Z,8.02
2023-03-25T01:34:13.044Z,7.99
2023-03-25T01:36:41.633Z,7.96
2023-03-25T01:39:10.724Z,7.90
2023-03-25T01:41:48.999Z,7.87
2023-03-25T01:44:22.322Z,7.86
2023-03-25T01:46:54.312Z,7.87
2023-03-25T01:49:26.641Z,7.84
2023-03-25T01:51:55.567Z,7.81
2023-03-25T01:54:24.165Z,7.76
2023-03-25T01:56:52.556Z,7.71
2023-03-25T01:59:21.305Z,7.69
2023-03-25T02:01:49.541Z,7.76
2023-03-25T02:04:22.939Z,7.76
2023-03-25T02:06:53.150Z,7.78
2023-03-25T02:09:22.090Z,7.75
2023-03-25T02:11:50.747Z,7.72
2023-03-25T02:14:19.948Z,7.79
2023-03-25T02:17:09.613Z,7.81
2023-03-25T02:19:44.674Z,7.80
2023-03-25T02:22:26.104Z,7.79
2023-03-25T02:25:04.455Z,7.74
2023-03-25T02:27:51.235Z,7.73
2023-03-25T02:30:47.150Z,7.71
2023-03-25T02:33:25.326Z,7.73
2023-03-25T02:36:13.864Z,7.73
2023-03-25T02:38:56.067Z,7.70
2023-03-25T02:41:25.950Z,7.67
2023-03-25T02:43:58.514Z,7.70
2023-03-25T02:46:27.073Z,7.73
2023-03-25T02:48:55.392Z,7.74
2023-03-25T02:51:25.528Z,7.75
2023-03-25T02:53:53.786Z,7.78
2023-03-25T02:56:24.090Z,7.78
2023-03-25T02:58:55.793Z,7.79
2023-03-25T03:01:27.093Z,7.74
2023-03-25T03:03:56.544Z,7.69
2023-03-25T03:06:25.216Z,7.65
2023-03-25T03:09:14.507Z,7.63
2023-03-25T03:12:01.067Z,7.65
2023-03-25T03:14:38.992Z,7.68
2023-03-25T03:17:20.398Z,7.68
2023-03-25T03:19:48.809Z,7.74
2023-03-25T03:22:35.641Z,7.80
2023-03-25T03:25:10.817Z,7.84
2023-03-25T03:27:53.088Z,7.87
2023-03-25T03:30:30.141Z,7.89
2023-03-25T03:33:39.142Z,7.86
2023-03-25T03:36:11.055Z,7.84
2023-03-25T03:38:49.430Z,7.81
2023-03-25T03:41:21.261Z,7.79
2023-03-25T03:43:56.939Z,7.75
2023-03-25T03:46:27.345Z,7.69
2023-03-25T03:48:55.979Z,7.63
2023-03-25T03:51:31.734Z,7.59
2023-03-25T03:54:01.147Z,7.58
2023-03-25T03:56:37.438Z,7.60
2023-03-25T03:59:08.694Z,7.65
2023-03-25T04:01:48.141Z,7.77
2023-03-25T04:04:20.938Z,7.85
2023-03-25T04:06:56.968Z,7.90
2023-03-25T04:09:28.390Z,7.90
2023-03-25T04:11:57.234Z,7.92
2023-03-25T04:14:25.641Z,7.95
2023-03-25T04:16:54.885Z,8.01
2023-03-25T04:19:23.945Z,8.01
2023-03-25T04:21:52.257Z,8.02
2023-03-25T04:24:20.494Z,8.08
2023-03-25T04:26:50.036Z,8.15
2023-03-25T04:29:21.718Z,8.19
2023-03-25T04:31:50.900Z,8.22
2023-03-25T04:34:20.798Z,8.24
2023-03-25T04:36:51.108Z,8.29
2023-03-25T04:39:22.717Z,8.29
2023-03-25T04:42:03.595Z,8.29
2023-03-25T04:44:39.273Z,8.30
2023-03-25T04:47:07.762Z,8.31
2023-03-25T04:49:37.954Z,8.33
2023-03-25T04:52:06.644Z,8.33
2023-03-25T04:54:35.095Z,8.29
2023-03-25T04:57:04.149Z,8.29
2023-03-25T04:59:32.348Z,8.34
2023-03-25T05:02:02.624Z,8.40
2023-03-25T05:04:30.958Z,8.44
2023-03-25T05:06:59.118Z,8.45
2023-03-25T05:09:27.459Z,8.43
2023-03-25T05:11:56.630Z,8.45
2023-03-25T05:14:25.714Z,8.46
2023-03-25T05:16:57.549Z,8.50
2023-03-25T05:19:28.623Z,8.54
2023-03-25T05:21:57.196Z,8.57
2023-03-25T05:24:26.567Z,8.60
2023-03-25T05:26:56.837Z,8.64
2023-03-25T05:29:25.039Z,8.69
2023-03-25T05:31:53.433Z,8.70
2023-03-25T05:34:22.856Z,8.71
2023-03-25T05:36:54.513Z,8.71
2023-03-25T05:39:24.581Z,8.75
2023-03-25T05:41:55.796Z,8.80
2023-03-25T05:44:31.808Z,8.83
2023-03-25T05:47:01.510Z,8.83
2023-03-25T05:49:30.220Z,8.84
2023-03-25T05:52:00.252Z,8.84
2023-03-25T05:54:30.955Z,8.87
2023-03-25T05:56:59.272Z,8.93
2023-03-25T05:59:27.621Z,8.99
2023-03-25T06:01:55.959Z,9.03
2023-03-25T06:04:25.140Z,9.07
2023-03-25T06:06:54.904Z,9.12
2023-03-25T06:09:25.133Z,9.19
2023-03-25T06:11:54.082Z,9.25
2023-03-25T06:14:25.928Z,9.30
2023-03-25T06:16:57.300Z,9.32
2023-03-25T06:19:26.680Z,9.33
2023-03-25T06:22:01.197Z,9.38
2023-03-25T06:24:39.940Z,9.43
2023-03-25T06:27:13.740Z,9.44
2023-03-25T06:29:42.195Z,9.43
2023-03-25T06:32:11.845Z,9.49
2023-03-25T06:34:42.837Z,9.57
2023-03-25T06:37:12.450Z,9.67
2023-03-25T06:39:40.560Z,9.73
2023-03-25T06:42:17.083Z,9.76
2023-03-25T06:45:05.158Z,9.70
2023-03-25T06:47:45.890Z,9.59
2023-03-25T06:50:14.439Z,9.54
2023-03-25T06:52:42.992Z,9.55
2023-03-25T06:55:12.418Z,9.56
2023-03-25T06:57:42.308Z,9.57
2023-03-25T07:00:12.181Z,9.64
2023-03-25T07:02:48.941Z,9.70
2023-03-25T07:05:17.322Z,9.77
2023-03-25T07:07:45.843Z,9.83
2023-03-25T07:10:15.514Z,9.93
2023-03-25T07:12:43.840Z,9.98
2023-03-25T07:15:12.302Z,10.04
2023-03-25T07:17:43.508Z,10.08
2023-03-25T07:20:15.843Z,10.15
2023-03-25T07:22:46.446Z,10.18
2023-03-25T07:25:15.283Z,10.20
2023-03-25T07:27:44.277Z,10.31
2023-03-25T07:30:15.082Z,10.38
2023-03-25T07:32:46.112Z,10.39
2023-03-25T07:35:14.277Z,10.41
2023-03-25T07:37:45.672Z,10.44
2023-03-25T07:40:13.894Z,10.48
2023-03-25T07:42:44.344Z,10.52
2023-03-25T07:45:43.756Z,10.64
2023-03-25T07:48:17.009Z,10.71
2023-03-25T07:50:46.248Z,10.73
2023-03-25T07:53:16.460Z,10.75
2023-03-25T07:55:45.914Z,10.78
2023-03-25T07:58:14.418Z,10.73
2023-03-25T08:00:42.725Z,10.65
2023-03-25T08:03:13.109Z,10.60
2023-03-25T08:05:46.672Z,10.67
2023-03-25T08:08:15.659Z,10.82
2023-03-25T08:10:44.425Z,10.88
2023-03-25T08:13:12.877Z,10.91
2023-03-25T08:15:41.607Z,10.97
2023-03-25T08:18:09.924Z,11.08
2023-03-25T08:20:40.674Z,11.11
2023-03-25T08:23:12.883Z,11.09
2023-03-25T08:25:42.061Z,11.18
2023-03-25T08:28:10.539Z,11.32
2023-03-25T08:30:39.149Z,11.48
2023-03-25T08:33:07.852Z,11.61
2023-03-25T08:35:56.840Z,11.75
2023-03-25T08:38:25.663Z,11.81
2023-03-25T08:40:56.086Z,11.85
2023-03-25T08:43:25.584Z,11.94
2023-03-25T08:45:59.355Z,12.05
2023-03-25T08:48:28.089Z,12.16
2023-03-25T08:50:59.464Z,12.21
2023-03-25T08:53:28.138Z,12.16
2023-03-25T08:55:57.282Z,12.06
2023-03-25T08:58:25.889Z,12.10
2023-03-25T09:00:56.129Z,12.13
2023-03-25T09:03:24.864Z,12.16
2023-03-25T09:05:55.873Z,12.25
2023-03-25T09:08:24.145Z,12.29
2023-03-25T09:10:52.335Z,12.35
2023-03-25T09:13:20.795Z,12.47
2023-03-25T09:15:49.304Z,12.58
2023-03-25T09:18:17.842Z,12.62
2023-03-25T09:20:49.352Z,12.67
2023-03-25T09:23:17.656Z,12.70
2023-03-25T09:25:51.485Z,12.69
2023-03-25T09:28:21.487Z,12.70
2023-03-25T09:30:49.673Z,12.75
2023-03-25T09:33:20.226Z,12.86
2023-03-25T09:35:49.181Z,12.95
2023-03-25T09:38:17.644Z,13.01
2023-03-25T09:40:46.912Z,13.03
2023-03-25T09:43:26.107Z,13.06
2023-03-25T09:45:54.889Z,13.02
2023-03-25T09:48:43.933Z,12.94
2023-03-25T09:51:31.006Z,12.93
2023-03-25T09:54:00.996Z,12.99
2023-03-25T09:56:30.825Z,13.07
2023-03-25T09:59:04.175Z,13.09
2023-03-25T10:01:41.898Z,13.05
2023-03-25T10:04:10.878Z,13.00
2023-03-25T10:06:42.867Z,13.06
2023-03-25T10:09:14.104Z,13.05
2023-03-25T10:11:50.100Z,12.91
2023-03-25T10:14:18.707Z,12.83
2023-03-25T10:17:07.591Z,12.84
2023-03-25T10:19:37.482Z,12.94
2023-03-25T10:22:07.501Z,12.95
2023-03-25T10:24:37.997Z,12.92
2023-03-25T10:27:08.619Z,12.79
2023-03-25T10:29:47.104Z,12.75
2023-03-25T10:32:18.510Z,12.81
2023-03-25T10:34:51.044Z,12.89
2023-03-25T10:37:29.053Z,12.90
2023-03-25T10:40:13.010Z,12.82
2023-03-25T10:43:01.861Z,12.74
2023-03-25T10:45:30.244Z,12.66
2023-03-25T10:48:02.896Z,12.70
2023-03-25T10:50:31.938Z,12.77
2023-03-25T10:53:00.234Z,12.83
2023-03-25T10:55:29.570Z,12.88
2023-03-25T10:57:58.228Z,12.83
2023-03-25T11:00:30.457Z,12.78
2023-03-25T11:03:02.372Z,12.76
2023-03-25T11:05:31.035Z,12.79
2023-03-25T11:08:09.037Z,12.79
2023-03-25T11:10:45.345Z,12.77
2023-03-25T11:13:16.447Z,12.78
2023-03-25T11:15:44.712Z,12.82
2023-03-25T11:18:19.910Z,12.84
2023-03-25T11:20:49.164Z,12.73
2023-03-25T11:23:56.280Z,12.60
2023-03-25T11:26:25.488Z,12.53
2023-03-25T11:28:57.312Z,12.50
2023-03-25T11:31:26.619Z,12.51
2023-03-25T11:34:07.342Z,12.56
2023-03-25T11:36:37.894Z,12.56
2023-03-25T11:39:30.229Z,12.53
2023-03-25T11:42:11.872Z,12.51
2023-03-25T11:44:40.919Z,12.49
2023-03-25T11:47:09.757Z,12.46
2023-03-25T11:49:38.847Z,12.45
2023-03-25T11:52:16.015Z,12.40
2023-03-25T11:54:44.473Z,12.36
2023-03-25T11:57:14.676Z,12.36
2023-03-25T11:59:48.967Z,12.37
2023-03-25T12:02:19.241Z,12.39
2023-03-25T12:05:03.742Z,12.32
2023-03-25T12:07:45.374Z,12.22
2023-03-25T12:10:21.228Z,12.15
2023-03-25T12:12:49.388Z,12.06
2023-03-25T12:15:20.717Z,12.03
2023-03-25T12:17:55.893Z,12.02
2023-03-25T12:20:42.750Z,12.00
2023-03-25T12:23:16.282Z,11.99
2023-03-25T12:25:54.036Z,12.04
2023-03-25T12:28:34.481Z,12.09
2023-03-25T12:31:09.133Z,12.10
2023-03-25T12:33:48.238Z,12.04
2023-03-25T12:36:16.630Z,11.96
2023-03-25T12:38:57.040Z,11.80
2023-03-25T12:41:28.353Z,11.68
2023-03-25T12:44:05.364Z,11.57
2023-03-25T12:46:54.268Z,11.43
2023-03-25T12:49:31.730Z,11.31
2023-03-25T12:52:18.982Z,11.30
2023-03-25T12:54:59.636Z,11.28
2023-03-25T12:57:38.681Z,11.25
2023-03-25T13:00:27.329Z,11.26
2023-03-25T13:03:14.295Z,11.26
2023-03-25T13:05:47.249Z,11.26
2023-03-25T13:08:22.817Z,11.19
2023-03-25T13:10:56.107Z,11.09
2023-03-25T13:13:25.934Z,11.00
2023-03-25T13:16:02.435Z,10.90
2023-03-25T13:18:35.564Z,10.79
2023-03-25T13:21:22.454Z,10.71
2023-03-25T13:24:14.279Z,10.65
2023-03-25T13:26:43.960Z,10.66
2023-03-25T13:29:25.522Z,10.71
2023-03-25T13:31:53.870Z,10.78
2023-03-25T13:34:23.347Z,10.76
2023-03-25T13:36:58.945Z,10.75
2023-03-25T13:39:33.320Z,10.76
2023-03-25T13:42:11.369Z,10.74
2023-03-25T13:44:40.540Z,10.69
2023-03-25T13:47:24.037Z,10.62
2023-03-25T13:49:53.292Z,10.57
2023-03-25T13:52:21.492Z,10.51
2023-03-25T13:54:53.018Z,10.38
2023-03-25T13:57:39.885Z,10.20
2023-03-25T14:00:14.889Z,10.13
2023-03-25T14:02:44.647Z,10.07
2023-03-25T14:05:21.796Z,10.07
2023-03-25T14:08:09.006Z,10.13
2023-03-25T14:10:48.189Z,10.16
2023-03-25T14:13:20.063Z,10.19
2023-03-25T14:16:14.865Z,10.18
2023-03-25T14:18:56.305Z,10.21
2023-03-25T14:21:32.154Z,10.20
2023-03-25T14:24:04.680Z,10.15
2023-03-25T14:26:33.501Z,10.05
2023-03-25T14:29:04.622Z,9.91
2023-03-25T14:31:33.708Z,9.87
2023-03-25T14:34:04.934Z,9.87
2023-03-25T14:36:40.908Z,9.86
2023-03-25T14:39:12.762Z,9.84
2023-03-25T14:41:56.130Z,9.80
2023-03-25T14:44:28.044Z,9.72
2023-03-25T14:47:02.360Z,9.63
2023-03-25T14:49:56.321Z,9.57
2023-03-25T14:52:29.435Z,9.55
2023-03-25T14:54:57.662Z,9.55
2023-03-25T14:57:26.990Z,9.51
2023-03-25T14:59:57.973Z,9.48
2023-03-25T15:02:28.686Z,9.50
2023-03-25T15:04:58.415Z,9.46
2023-03-25T15:07:47.226Z,9.38
2023-03-25T15:10:28.272Z,9.29
2023-03-25T15:13:04.142Z,9.19
2023-03-25T15:15:33.939Z,9.12
2023-03-25T15:18:02.409Z,9.08
2023-03-25T15:20:49.147Z,9.06
2023-03-25T15:23:18.216Z,9.06
2023-03-25T15:25:46.798Z,9.06
2023-03-25T15:28:34.363Z,9.04
2023-03-25T15:31:15.022Z,8.99
2023-03-25T15:33:52.604Z,8.95
2023-03-25T15:36:21.361Z,8.92
2023-03-25T15:38:51.796Z,8.88
2023-03-25T15:41:29.586Z,8.89
2023-03-25T15:44:06.684Z,8.87
2023-03-25T15:46:37.839Z,8.84
2023-03-25T15:49:25.165Z,8.84
2023-03-25T15:51:54.263Z,8.83
2023-03-25T15:54:28.500Z,8.82
2023-03-25T15:57:00.744Z,8.80
2023-03-25T15:59:41.092Z,8.78
2023-03-25T16:02:14.981Z,8.78
2023-03-25T16:04:48.466Z,8.76
2023-03-25T16:07:17.354Z,8.75
2023-03-25T16:09:46.926Z,8.76
2023-03-25T16:12:23.194Z,8.74
2023-03-25T16:14:52.065Z,8.68
2023-03-25T16:17:21.080Z,8.66
2023-03-25T16:19:58.230Z,8.63
2023-03-25T16:22:34.442Z,8.60
2023-03-25T16:25:05.099Z,8.58
2023-03-25T16:27:37.821Z,8.55
2023-03-25T16:30:19.652Z,8.52
2023-03-25T16:32:48.223Z,8.55
2023-03-25T16:35:21.524Z,8.54
2023-03-25T16:37:51.582Z,8.56
2023-03-25T16:40:26.663Z,8.55
2023-03-25T16:42:55.786Z,8.54
2023-03-25T16:45:24.009Z,8.55
2023-03-25T16:47:53.308Z,8.56
2023-03-25T16:50:21.752Z,8.55
2023-03-25T16:52:51.650Z,8.55
2023-03-25T16:55:30.049Z,8.55
2023-03-25T16:58:02.431Z,8.58
2023-03-25T17:00:38.277Z,8.61
2023-03-25T17:03:06.989Z,8.63
2023-03-25T17:05:36.213Z,8.65
2023-03-25T17:08:07.241Z,8.67
2023-03-25T17:10:48.519Z,8.67
2023-03-25T17:13:22.957Z,8.67
2023-03-25T17:15:51.526Z,8.64
2023-03-25T17:18:20.016Z,8.63
2023-03-25T17:20:51.869Z,8.58
2023-03-25T17:23:32.158Z,8.57
2023-03-25T17:26:01.896Z,8.59
2023-03-25T17:28:38.336Z,8.60
2023-03-25T17:31:18.687Z,8.58
2023-03-25T17:33:50.942Z,8.60
2023-03-25T17:36:20.192Z,8.61
2023-03-25T17:38:48.929Z,8.61
2023-03-25T17:41:17.664Z,8.58
2023-03-25T17:43:48.246Z,8.56
2023-03-25T17:46:28.264Z,8.57
2023-03-25T17:48:57.934Z,8.62
2023-03-25T17:51:26.914Z,8.65
2023-03-25T17:53:55.628Z,8.66
2023-03-25T17:56:27.699Z,8.68
2023-03-25T17:59:00.469Z,8.69
2023-03-25T18:01:29.247Z,8.70
2023-03-25T18:03:58.373Z,8.67
2023-03-25T18:06:36.444Z,8.65
2023-03-25T18:09:14.787Z,8.69
2023-03-25T18:11:45.459Z,8.69
2023-03-25T18:14:15.036Z,8.66
2023-03-25T18:16:44.402Z,8.64
2023-03-25T18:19:16.425Z,8.65
2023-03-25T18:21:44.854Z,8.65
2023-03-25T18:24:13.982Z,8.61
2023-03-25T18:26:43.716Z,8.61
2023-03-25T18:29:17.027Z,8.62
2023-03-25T18:31:45.547Z,8.66
2023-03-25T18:34:14.352Z,8.72
2023-03-25T18:36:43.144Z,8.78
2023-03-25T18:39:12.381Z,8.81
2023-03-25T18:41:42.116Z,8.85
2023-03-25T18:44:10.669Z,8.85
2023-03-25T18:46:40.252Z,8.79
2023-03-25T18:49:12.419Z,8.74
2023-03-25T18:51:40.812Z,8.66
2023-03-25T18:54:09.620Z,8.59
2023-03-25T18:56:38.289Z,8.54
2023-03-25T18:59:11.931Z,8.51
2023-03-25T19:01:42.602Z,8.53
2023-03-25T19:04:11.093Z,8.57
2023-03-25T19:06:48.941Z,8.59
2023-03-25T19:09:19.140Z,8.56
2023-03-25T19:11:47.583Z,8.54
2023-03-25T19:14:16.430Z,8.53
2023-03-25T19:16:54.027Z,8.55
2023-03-25T19:19:31.173Z,8.52
2023-03-25T19:22:00.836Z,8.50
2023-03-25T19:24:29.529Z,8.50
2023-03-25T19:26:58.971Z,8.51
2023-03-25T19:29:27.959Z,8.51
2023-03-25T19:31:56.412Z,8.50
2023-03-25T19:34:24.874Z,8.50
2023-03-25T19:37:02.706Z,8.49
2023-03-25T19:39:31.282Z,8.44
2023-03-25T19:42:00.512Z,8.40
2023-03-25T19:44:28.912Z,8.37
2023-03-25T19:47:01.175Z,8.34
2023-03-25T19:49:39.187Z,8.30
2023-03-25T19:52:08.633Z,8.27
2023-03-25T19:54:40.285Z,8.26
2023-03-25T19:57:09.831Z,8.26
2023-03-25T19:59:45.228Z,8.26
2023-03-25T20:02:16.043Z,8.26
2023-03-25T20:04:45.892Z,8.26
2023-03-25T20:07:20.581Z,8.24
2023-03-25T20:09:48.778Z,8.25
2023-03-25T20:12:17.328Z,8.26
2023-03-25T20:14:45.557Z,8.28
2023-03-25T20:17:14.051Z,8.27
2023-03-25T20:19:42.186Z,8.29
2023-03-25T20:22:22.314Z,8.29
2023-03-25T20:24:55.650Z,8.33
2023-03-25T20:27:30.921Z,8.35
2023-03-25T20:29:59.204Z,8.35
2023-03-25T20:32:37.722Z,8.34
2023-03-25T20:35:08.309Z,8.34
2023-03-25T20:37:37.257Z,8.34
2023-03-25T20:40:07.215Z,8.32
2023-03-25T20:42:36.215Z,8.32
2023-03-25T20:45:09.603Z,8.35
2023-03-25T20:47:38.243Z,8.39
2023-03-25T20:50:06.771Z,8.39
2023-03-25T20:52:36.402Z,8.37
2023-03-25T20:55:05.919Z,8.39
2023-03-25T20:57:34.272Z,8.42
2023-03-25T21:00:02.488Z,8.42
2023-03-25T21:02:31.740Z,8.42
2023-03-25T21:05:02.017Z,8.45
2023-03-25T21:07:32.476Z,8.48
2023-03-25T21:10:00.665Z,8.50
2023-03-25T21:12:43.630Z,8.49
2023-03-25T21:15:14.958Z,8.49
2023-03-25T21:17:43.529Z,8.48
2023-03-25T21:20:16.531Z,8.46
2023-03-25T21:22:45.937Z,8.46
2023-03-25T21:25:17.020Z,8.49
2023-03-25T21:27:47.246Z,8.49
2023-03-25T21:30:15.948Z,8.50
2023-03-25T21:32:45.121Z,8.51
2023-03-25T21:35:13.338Z,8.52
2023-03-25T21:37:41.821Z,8.50
2023-03-25T21:40:11.332Z,8.43
2023-03-25T21:42:41.798Z,8.39
2023-03-25T21:45:11.428Z,8.38
2023-03-25T21:47:40.350Z,8.38
2023-03-25T21:50:10.562Z,8.41
2023-03-25T21:52:43.276Z,8.42
2023-03-25T21:55:14.572Z,8.43
2023-03-25T21:57:44.922Z,8.43
2023-03-25T22:00:17.523Z,8.42
2023-03-25T22:02:47.829Z,8.41
2023-03-25T22:05:16.679Z,8.42
2023-03-25T22:07:45.308Z,8.40
2023-03-25T22:10:15.009Z,8.36
2023-03-25T22:12:43.792Z,8.34
2023-03-25T22:15:14.165Z,8.36
2023-03-25T22:17:44.476Z,8.42
2023-03-25T22:20:13.730Z,8.47
2023-03-25T22:22:43.117Z,8.49
2023-03-25T22:25:11.704Z,8.49
2023-03-25T22:27:40.677Z,8.47
2023-03-25T22:30:09.778Z,8.45
2023-03-25T22:32:38.983Z,8.46
2023-03-25T22:35:07.271Z,8.45
2023-03-25T22:37:37.117Z,8.47
2023-03-25T22:40:08.812Z,8.45
2023-03-25T22:42:38.808Z,8.39
2023-03-25T22:45:07.443Z,8.37
2023-03-25T22:47:35.927Z,8.37
2023-03-25T22:50:04.545Z,8.36
2023-03-25T22:52:33.078Z,8.36
2023-03-25T22:55:01.408Z,8.35
2023-03-25T22:57:31.174Z,8.36
2023-03-25T22:59:59.398Z,8.38
2023-03-25T23:02:27.860Z,8.37
2023-03-25T23:04:56.404Z,8.34
2023-03-25T23:07:24.934Z,8.35
2023-03-25T23:09:53.220Z,8.37
2023-03-25T23:12:22.946Z,8.38
2023-03-25T23:14:54.473Z,8.41
2023-03-25T23:17:23.691Z,8.42
2023-03-25T23:19:52.617Z,8.42
2023-03-25T23:22:21.930Z,8.38
2023-03-25T23:24:50.340Z,8.36
2023-03-25T23:27:18.598Z,8.36
2023-03-25T23:29:48.581Z,8.38
2023-03-25T23:32:16.931Z,8.40
2023-03-25T23:34:45.489Z,8.42
2023-03-25T23:37:13.925Z,8.42
2023-03-25T23:39:42.239Z,8.41
2023-03-25T23:42:10.627Z,8.41
2023-03-25T23:44:38.962Z,8.40
2023-03-25T23:47:07.563Z,8.42
2023-03-25T23:49:38.662Z,8.46
2023-03-25T23:52:11.829Z,8.49
2023-03-25T23:54:40.708Z,8.53
2023-03-25T23:57:09.376Z,8.55
2023-03-25T23:59:40.813Z,8.57
